Time;durP1;ratioP1;P1;durP2;ratioP2;P2;SDS_P1;SDS_P2;PMS_P1;PMS_P2;Temp;Humidity;BMP_temperature;BMP_pressure;BME280_temperature;BME280_humidity;BME280_pressure;Samples;Min_cycle;Max_cycle;Signal;HPM_P1;HPM_P2
2022/04/27 00:02:11;;;;;;;;;;;;;;;14.36;100.00;99508.09;5062386;28;19920;-39
2022/04/27 00:04:37;;;;;;;;;;;;;;;14.30;100.00;99510.94;5063219;28;19916;-39
2022/04/27 00:07:04;;;;;;;;;;;;;;;14.47;100.00;99510.25;5062533;28;19967;-39
2022/04/27 00:09:29;;;;;;;;;;;;;;;13.67;100.00;99512.47;5063086;28;19950;-39
2022/04/27 00:11:59;;;;;;;;;;;;;;;13.20;100.00;99513.19;5062299;28;20561;-39
2022/04/27 00:14:25;;;;;;;;;;;;;;;13.59;100.00;99515.31;5061822;28;20001;-40
2022/04/27 00:16:50;;;;;;;;;;;;;;;13.66;100.00;99516.81;5064161;28;20062;-39
2022/04/27 00:19:16;;;;;;;;;;;;;;;13.80;100.00;99513.69;5059583;28;19924;-39
2022/04/27 00:21:41;;;;;;;;;;;;;;;13.72;100.00;99508.78;5061012;28;19913;-39
2022/04/27 00:24:06;;;;;;;;;;;;;;;13.38;100.00;99520.34;5061780;28;19944;-39
2022/04/27 00:26:32;;;;;;;;;;;;;;;13.24;100.00;99513.94;5062406;28;19999;-39
2022/04/27 00:28:57;;;;;;;;;;;;;;;13.35;100.00;99514.44;5063934;28;19916;-39
2022/04/27 00:31:22;;;;;;;;;;;;;;;13.38;100.00;99517.75;5063262;28;19917;-39
2022/04/27 00:33:47;;;;;;;;;;;;;;;13.59;100.00;99521.34;5058803;28;19996;-39
2022/04/27 00:36:13;;;;;;;;;;;;;;;13.34;100.00;99521.38;5063593;28;20007;-39
2022/04/27 00:38:38;;;;;;;;;;;;;;;13.91;100.00;99521.91;5061837;28;19920;-39
2022/04/27 00:41:03;;;;;;;;;;;;;;;14.09;100.00;99520.34;5061267;28;19916;-39
2022/04/27 00:43:38;;;;;;;;;;;;;;;13.54;100.00;99517.22;5063334;28;19920;-39
2022/04/27 00:46:04;;;;;;;;;;;;;;;13.60;100.00;99517.00;5062150;28;20414;-39
2022/04/27 00:48:29;;;;;;;;;;;;;;;13.69;100.00;99527.03;5058818;28;19924;-39
2022/04/27 00:50:54;;;;;;;;;;;;;;;13.78;100.00;99525.84;5058376;28;20044;-39
2022/04/27 00:53:20;;;;;;;;;;;;;;;13.65;100.00;99520.28;5064071;28;19973;-39
2022/04/27 00:55:45;;;;;;;;;;;;;;;13.46;100.00;99527.03;5059448;28;20008;-39
2022/04/27 00:58:11;;;;;;;;;;;;;;;13.55;100.00;99526.69;5061135;28;19952;-39
2022/04/27 01:00:36;;;;;;;;;;;;;;;13.36;100.00;99529.06;5058917;28;20007;-39
2022/04/27 01:03:01;;;;;;;;;;;;;;;13.32;100.00;99523.16;5061152;28;19931;-39
2022/04/27 01:05:26;;;;;;;;;;;;;;;13.59;100.00;99526.53;5061415;28;19923;-39
2022/04/27 01:07:52;;;;;;;;;;;;;;;13.61;100.00;99534.22;5062030;28;19931;-39
2022/04/27 01:10:18;;;;;;;;;;;;;;;13.16;100.00;99538.34;5061947;28;20020;-39
2022/04/27 01:12:43;;;;;;;;;;;;;;;13.32;100.00;99530.94;5058831;28;20647;-39
2022/04/27 01:15:09;;;;;;;;;;;;;;;13.23;100.00;99538.97;5060746;28;19923;-39
2022/04/27 01:17:34;;;;;;;;;;;;;;;13.58;100.00;99544.69;5063730;28;19962;-40
2022/04/27 01:19:59;;;;;;;;;;;;;;;13.48;100.00;99543.31;5062400;28;19973;-40
2022/04/27 01:22:24;;;;;;;;;;;;;;;13.55;100.00;99547.38;5060070;28;19920;-39
2022/04/27 01:24:50;;;;;;;;;;;;;;;13.75;100.00;99552.69;5059478;28;19916;-39
2022/04/27 01:27:15;;;;;;;;;;;;;;;13.68;100.00;99543.44;5064915;28;19919;-39
2022/04/27 01:29:40;;;;;;;;;;;;;;;13.54;100.00;99543.09;5060752;28;19923;-39
2022/04/27 01:32:06;;;;;;;;;;;;;;;13.12;100.00;99551.44;5056918;28;20455;-39
2022/04/27 01:34:31;;;;;;;;;;;;;;;13.69;100.00;99549.50;5062396;28;19970;-39
2022/04/27 01:37:59;;;;;;;;;;;;;;;13.70;100.00;99554.59;5060276;28;20692;-39
2022/04/27 01:39:42;;;;;;;;;;;;;;;13.62;100.00;99554.03;5062952;28;19989;-39
2022/04/27 01:42:07;;;;;;;;;;;;;;;13.50;100.00;99552.72;5061942;28;19917;-39
2022/04/27 01:44:32;;;;;;;;;;;;;;;13.71;100.00;99555.47;5063529;28;19916;-39
2022/04/27 01:46:57;;;;;;;;;;;;;;;13.69;100.00;99555.50;5065652;28;19920;-39
2022/04/27 01:49:23;;;;;;;;;;;;;;;13.85;100.00;99553.19;5068134;28;20935;-39
2022/04/27 01:54:32;;;;;;;;;;;;;;;13.54;100.00;99559.47;5065015;28;19979;-41
2022/04/27 01:56:57;;;;;;;;;;;;;;;13.67;100.00;99557.28;5067316;28;19927;-40
2022/04/27 01:59:23;;;;;;;;;;;;;;;13.60;100.00;99555.84;5063223;28;19920;-39
2022/04/27 02:01:48;;;;;;;;;;;;;;;13.67;100.00;99561.63;5066454;28;19923;-40
2022/04/27 02:04:14;;;;;;;;;;;;;;;13.28;100.00;99562.97;5062572;28;20287;-39
2022/04/27 02:06:40;;;;;;;;;;;;;;;13.49;100.00;99560.53;5062374;28;19924;-39
2022/04/27 02:09:05;;;;;;;;;;;;;;;13.50;100.00;99567.38;5060189;28;20031;-39
2022/04/27 02:11:31;;;;;;;;;;;;;;;13.25;100.00;99570.81;5063587;28;19998;-39
2022/04/27 02:13:56;;;;;;;;;;;;;;;13.60;100.00;99579.13;5066041;28;19928;-39
2022/04/27 02:16:22;;;;;;;;;;;;;;;13.68;100.00;99576.25;5064211;28;19920;-39
2022/04/27 02:18:48;;;;;;;;;;;;;;;13.45;100.00;99577.06;5063942;28;20622;-39
2022/04/27 02:21:14;;;;;;;;;;;;;;;13.12;100.00;99579.88;5064753;28;19920;-39
2022/04/27 02:23:39;;;;;;;;;;;;;;;13.32;100.00;99574.91;5062836;28;19924;-39
2022/04/27 02:26:05;;;;;;;;;;;;;;;13.44;100.00;99578.81;5062671;28;20001;-39
2022/04/27 02:28:30;;;;;;;;;;;;;;;13.22;100.00;99583.81;5066921;28;19947;-39
2022/04/27 02:30:55;;;;;;;;;;;;;;;13.25;100.00;99582.88;5064016;28;20797;-39
2022/04/27 02:33:20;;;;;;;;;;;;;;;12.81;100.00;99586.03;5060197;28;20032;-39
2022/04/27 02:35:46;;;;;;;;;;;;;;;13.11;100.00;99578.16;5061883;28;20061;-39
2022/04/27 02:38:11;;;;;;;;;;;;;;;12.83;100.00;99586.81;5063182;28;20023;-40
2022/04/27 02:40:36;;;;;;;;;;;;;;;13.20;100.00;99580.44;5062548;28;20782;-39
2022/04/27 02:43:01;;;;;;;;;;;;;;;13.15;100.00;99588.34;5060699;28;19976;-40
2022/04/27 02:45:27;;;;;;;;;;;;;;;13.11;100.00;99591.09;5061520;28;19920;-39
2022/04/27 02:47:52;;;;;;;;;;;;;;;13.29;100.00;99587.91;5062168;28;20047;-40
2022/04/27 02:53:01;;;;;;;;;;;;;;;13.46;100.00;99596.88;5065097;28;19951;-40
2022/04/27 02:55:26;;;;;;;;;;;;;;;13.51;100.00;99594.97;5062835;28;19920;-39
2022/04/27 02:57:52;;;;;;;;;;;;;;;13.56;100.00;99591.31;5059611;28;19943;-40
2022/04/27 03:00:17;;;;;;;;;;;;;;;13.50;100.00;99591.53;5063274;28;19920;-40
2022/04/27 03:02:43;;;;;;;;;;;;;;;13.46;100.00;99597.72;5063559;28;20453;-39
2022/04/27 03:05:08;;;;;;;;;;;;;;;13.60;100.00;99602.41;5066284;28;20029;-40
2022/04/27 03:07:33;;;;;;;;;;;;;;;13.29;100.00;99594.84;5064341;28;19956;-39
2022/04/27 03:09:58;;;;;;;;;;;;;;;13.47;100.00;99603.72;5063435;28;19967;-40
2022/04/27 03:12:24;;;;;;;;;;;;;;;13.33;100.00;99601.63;5063020;28;19967;-39
2022/04/27 03:14:49;;;;;;;;;;;;;;;13.45;100.00;99610.69;5064376;28;20000;-40
2022/04/27 03:17:14;;;;;;;;;;;;;;;13.58;100.00;99612.81;5061599;28;19959;-40
2022/04/27 03:19:41;;;;;;;;;;;;;;;13.43;100.00;99612.47;5061069;28;20018;-40
2022/04/27 03:22:08;;;;;;;;;;;;;;;13.46;100.00;99602.88;5062036;28;19927;-39
2022/04/27 03:24:33;;;;;;;;;;;;;;;13.38;100.00;99605.72;5061795;28;20019;-39
2022/04/27 03:26:59;;;;;;;;;;;;;;;13.38;100.00;99605.72;5063615;28;19927;-39
2022/04/27 03:29:24;;;;;;;;;;;;;;;13.39;100.00;99609.19;5062262;28;19959;-39
2022/04/27 03:31:49;;;;;;;;;;;;;;;13.38;100.00;99610.91;5065191;28;19924;-39
2022/04/27 03:34:14;;;;;;;;;;;;;;;13.30;100.00;99618.09;5060557;28;19944;-39
2022/04/27 03:36:39;;;;;;;;;;;;;;;13.52;100.00;99617.34;5063469;28;19924;-39
2022/04/27 03:39:05;;;;;;;;;;;;;;;13.57;100.00;99615.44;5058178;28;20069;-39
2022/04/27 03:41:30;;;;;;;;;;;;;;;13.50;100.00;99616.56;5061088;28;20026;-40
2022/04/27 03:43:55;;;;;;;;;;;;;;;12.85;100.00;99615.22;5063071;28;20978;-39
2022/04/27 03:46:21;;;;;;;;;;;;;;;13.49;100.00;99617.47;5062065;28;20998;-39
2022/04/27 03:48:46;;;;;;;;;;;;;;;13.51;100.00;99619.09;5064121;28;19970;-39
2022/04/27 03:51:12;;;;;;;;;;;;;;;13.53;100.00;99619.88;5059838;28;19920;-39
2022/04/27 03:53:37;;;;;;;;;;;;;;;13.27;100.00;99619.88;5059766;28;19924;-39
2022/04/27 03:56:02;;;;;;;;;;;;;;;13.26;100.00;99624.22;5062551;28;20374;-39
2022/04/27 03:58:27;;;;;;;;;;;;;;;13.26;100.00;99624.22;5061718;28;19947;-39
2022/04/27 04:00:53;;;;;;;;;;;;;;;13.51;100.00;99626.03;5064253;28;20012;-39
2022/04/27 04:03:18;;;;;;;;;;;;;;;13.55;100.00;99627.63;5063620;28;20019;-39
2022/04/27 04:05:43;;;;;;;;;;;;;;;13.39;100.00;99627.28;5059377;28;20636;-39
2022/04/27 04:08:08;;;;;;;;;;;;;;;13.29;100.00;99626.72;5057729;28;20050;-39
2022/04/27 04:10:34;;;;;;;;;;;;;;;13.26;100.00;99631.97;5060243;28;19935;-40
2022/04/27 04:12:59;;;;;;;;;;;;;;;13.20;100.00;99632.16;5061619;28;19928;-40
2022/04/27 04:15:24;;;;;;;;;;;;;;;13.22;100.00;99632.97;5062370;28;20332;-40
2022/04/27 04:17:49;;;;;;;;;;;;;;;13.50;100.00;99639.84;5063228;28;19984;-40
2022/04/27 04:20:17;;;;;;;;;;;;;;;13.36;100.00;99637.72;5064024;28;19943;-39
2022/04/27 04:22:42;;;;;;;;;;;;;;;13.01;100.00;99644.00;5060604;28;19920;-39
2022/04/27 04:30:35;;;;;;;;;;;;;;;13.22;100.00;99650.22;5064569;28;20031;-40
2022/04/27 04:33:01;;;;;;;;;;;;;;;13.11;100.00;99666.09;5060397;28;19925;-39
2022/04/27 04:35:26;;;;;;;;;;;;;;;12.51;100.00;99667.91;5060983;28;20096;-39
2022/04/27 04:37:51;;;;;;;;;;;;;;;11.15;100.00;99683.47;5062463;28;20012;-39
2022/04/27 04:40:16;;;;;;;;;;;;;;;11.14;100.00;99688.69;5063584;28;19931;-39
2022/04/27 04:42:42;;;;;;;;;;;;;;;11.64;100.00;99684.88;5060542;28;19924;-39
2022/04/27 04:45:07;;;;;;;;;;;;;;;11.27;100.00;99685.78;5059519;28;19921;-39
2022/04/27 04:47:32;;;;;;;;;;;;;;;11.73;100.00;99689.78;5062168;28;19949;-39
2022/04/27 04:49:57;;;;;;;;;;;;;;;12.16;100.00;99689.56;5061149;28;20606;-39
2022/04/27 04:52:23;;;;;;;;;;;;;;;12.24;100.00;99687.63;5068966;28;19975;-40
2022/04/27 04:54:48;;;;;;;;;;;;;;;11.67;100.00;99707.16;5059415;28;19993;-48
2022/04/27 04:57:13;;;;;;;;;;;;;;;11.76;100.00;99703.50;5061820;28;19927;-45
2022/04/27 04:59:38;;;;;;;;;;;;;;;11.97;100.00;99708.13;5055424;28;20022;-47
2022/04/27 05:02:04;;;;;;;;;;;;;;;11.87;100.00;99712.69;5061656;28;20130;-48
2022/04/27 05:04:30;;;;;;;;;;;;;;;11.76;100.00;99708.66;5059044;28;19924;-46
2022/04/27 05:06:56;;;;;;;;;;;;;;;12.32;100.00;99708.94;5058494;28;19936;-46
2022/04/27 05:09:21;;;;;;;;;;;;;;;12.64;100.00;99714.94;5062538;28;19929;-47
2022/04/27 05:11:47;;;;;;;;;;;;;;;12.19;100.00;99718.75;5057159;28;19927;-47
2022/04/27 05:14:12;;;;;;;;;;;;;;;12.68;100.00;99712.22;5062350;28;19924;-47
2022/04/27 05:16:38;;;;;;;;;;;;;;;12.29;100.00;99724.50;5060625;28;19920;-48
2022/04/27 05:19:03;;;;;;;;;;;;;;;11.77;100.00;99725.81;5062147;28;20703;-46
2022/04/27 05:21:28;;;;;;;;;;;;;;;12.61;100.00;99722.75;5063526;28;20006;-49
2022/04/27 05:23:53;;;;;;;;;;;;;;;11.90;100.00;99722.09;5063917;28;20373;-46
2022/04/27 05:26:19;;;;;;;;;;;;;;;12.08;100.00;99728.50;5064770;28;20360;-46
2022/04/27 05:34:12;;;;;;;;;;;;;;;12.59;100.00;99737.44;5061704;28;20318;-46
2022/04/27 05:36:37;;;;;;;;;;;;;;;12.38;100.00;99744.06;5062059;28;19924;-48
2022/04/27 05:39:02;;;;;;;;;;;;;;;12.32;100.00;99745.09;5063529;28;20018;-47
2022/04/27 05:41:28;;;;;;;;;;;;;;;11.42;100.00;99746.44;5061268;28;20089;-47
2022/04/27 05:43:53;;;;;;;;;;;;;;;12.48;100.00;99736.03;5063007;28;19927;-47
2022/04/27 05:46:18;;;;;;;;;;;;;;;12.68;100.00;99747.50;5060990;28;20389;-45
2022/04/27 05:48:43;;;;;;;;;;;;;;;12.71;100.00;99752.63;5063916;28;20456;-48
2022/04/27 05:51:09;;;;;;;;;;;;;;;12.74;100.00;99749.94;5065380;28;20010;-49
2022/04/27 05:53:34;;;;;;;;;;;;;;;13.00;100.00;99756.94;5065976;28;19971;-47
2022/04/27 05:55:59;;;;;;;;;;;;;;;12.54;100.00;99766.00;5066050;28;19959;-47
2022/04/27 05:58:25;;;;;;;;;;;;;;;12.71;100.00;99750.88;5064297;28;20323;-47
2022/04/27 06:00:51;;;;;;;;;;;;;;;13.10;100.00;99749.75;5062352;28;20705;-46
2022/04/27 06:03:16;;;;;;;;;;;;;;;13.18;100.00;99752.94;5062536;28;20419;-46
2022/04/27 06:05:42;;;;;;;;;;;;;;;13.38;100.00;99760.94;5059924;28;19931;-49
2022/04/27 06:08:07;;;;;;;;;;;;;;;12.89;100.00;99759.84;5062635;28;19917;-47
2022/04/27 06:10:33;;;;;;;;;;;;;;;12.78;100.00;99759.28;5064527;28;20360;-49
2022/04/27 06:12:58;;;;;;;;;;;;;;;13.06;100.00;99758.47;5060085;28;20532;-47
2022/04/27 06:15:23;;;;;;;;;;;;;;;13.45;100.00;99758.19;5064945;28;19916;-46
2022/04/27 06:17:48;;;;;;;;;;;;;;;13.54;100.00;99765.66;5064248;28;19998;-47
2022/04/27 06:20:14;;;;;;;;;;;;;;;13.32;100.00;99760.28;5063629;28;19916;-48
2022/04/27 06:22:39;;;;;;;;;;;;;;;13.43;100.00;99757.38;5063192;28;19960;-49
2022/04/27 06:25:04;;;;;;;;;;;;;;;12.89;100.00;99756.41;5062158;28;20196;-47
2022/04/27 06:27:30;;;;;;;;;;;;;;;13.52;100.00;99764.84;5059237;28;20388;-49
2022/04/27 06:29:55;;;;;;;;;;;;;;;13.59;100.00;99768.94;5062298;28;19920;-45
2022/04/27 06:32:20;;;;;;;;;;;;;;;13.84;100.00;99762.97;5059854;28;19924;-50
2022/04/27 06:34:45;;;;;;;;;;;;;;;13.77;100.00;99768.31;5062797;28;19916;-47
2022/04/27 06:37:11;;;;;;;;;;;;;;;14.02;100.00;99776.13;5062287;28;19920;-49
2022/04/27 06:39:45;;;;;;;;;;;;;;;13.38;100.00;99776.47;5061342;28;19925;-51
2022/04/27 06:42:10;;;;;;;;;;;;;;;13.58;100.00;99772.44;5059211;28;19923;-49
2022/04/27 06:44:36;;;;;;;;;;;;;;;14.48;100.00;99771.09;5061689;28;19916;-49
2022/04/27 06:47:01;;;;;;;;;;;;;;;14.52;100.00;99770.09;5062597;28;19920;-48
2022/04/27 06:49:26;;;;;;;;;;;;;;;14.52;100.00;99767.50;5059627;28;19920;-50
2022/04/27 06:51:52;;;;;;;;;;;;;;;15.04;100.00;99769.97;5060115;28;19943;-50
2022/04/27 06:54:17;;;;;;;;;;;;;;;15.56;100.00;99773.13;5063425;28;19920;-51
2022/04/27 06:56:42;;;;;;;;;;;;;;;15.04;100.00;99775.97;5060474;28;19921;-47
2022/04/27 06:59:08;;;;;;;;;;;;;;;15.27;100.00;99779.44;5059643;28;19924;-51
2022/04/27 07:01:33;;;;;;;;;;;;;;;15.67;100.00;99780.47;5061522;28;19920;-48
2022/04/27 07:04:06;;;;;;;;;;;;;;;15.60;100.00;99781.59;5060254;28;19973;-49
2022/04/27 07:06:31;;;;;;;;;;;;;;;15.34;100.00;99780.91;5060605;28;20011;-49
2022/04/27 07:08:56;;;;;;;;;;;;;;;15.09;100.00;99782.75;5058867;28;19926;-47
2022/04/27 07:11:22;;;;;;;;;;;;;;;14.68;100.00;99782.53;5060635;28;20014;-48
2022/04/27 07:13:47;;;;;;;;;;;;;;;15.15;100.00;99787.72;5059489;28;19924;-47
2022/04/27 07:16:12;;;;;;;;;;;;;;;15.92;100.00;99788.16;5059551;28;19920;-49
2022/04/27 07:18:37;;;;;;;;;;;;;;;15.83;100.00;99786.75;5060664;28;20542;-50
2022/04/27 07:21:03;;;;;;;;;;;;;;;16.00;100.00;99787.81;5059047;28;20479;-49
2022/04/27 07:23:29;;;;;;;;;;;;;;;16.85;100.00;99783.25;5064577;28;20397;-50
2022/04/27 07:25:54;;;;;;;;;;;;;;;16.53;100.00;99792.47;5059919;28;19924;-48
2022/04/27 07:28:19;;;;;;;;;;;;;;;15.07;100.00;99790.59;5062555;28;19920;-48
2022/04/27 07:30:44;;;;;;;;;;;;;;;15.61;100.00;99796.28;5062520;28;20705;-50
2022/04/27 07:33:10;;;;;;;;;;;;;;;16.29;100.00;99794.38;5061322;28;19963;-48
2022/04/27 07:35:36;;;;;;;;;;;;;;;16.56;100.00;99796.69;5061231;28;19974;-51
2022/04/27 07:38:02;;;;;;;;;;;;;;;16.62;100.00;99797.25;5058738;28;19920;-48
2022/04/27 07:40:27;;;;;;;;;;;;;;;16.62;100.00;99801.63;5063552;28;19990;-47
2022/04/27 07:42:52;;;;;;;;;;;;;;;16.29;100.00;99805.63;5057793;28;19924;-50
2022/04/27 07:45:17;;;;;;;;;;;;;;;16.21;100.00;99812.88;5059006;28;19986;-51
2022/04/27 07:47:43;;;;;;;;;;;;;;;15.83;100.00;99811.91;5061146;28;19920;-50
2022/04/27 07:50:12;;;;;;;;;;;;;;;17.12;100.00;99801.97;5056981;28;19950;-50
2022/04/27 07:52:38;;;;;;;;;;;;;;;16.28;100.00;99809.16;5059631;28;19924;-52
2022/04/27 07:55:04;;;;;;;;;;;;;;;14.55;100.00;99808.91;5058940;28;19916;-48
2022/04/27 07:57:30;;;;;;;;;;;;;;;16.40;100.00;99810.38;5062911;28;19920;-49
2022/04/27 07:59:55;;;;;;;;;;;;;;;16.75;100.00;99809.75;5058470;28;20019;-52
2022/04/27 08:02:21;;;;;;;;;;;;;;;16.41;100.00;99809.44;5060191;28;19916;-46
2022/04/27 08:04:46;;;;;;;;;;;;;;;16.52;100.00;99806.38;5058330;28;19923;-50
2022/04/27 08:07:11;;;;;;;;;;;;;;;16.55;100.00;99801.03;5064360;28;19924;-51
2022/04/27 08:09:36;;;;;;;;;;;;;;;17.09;100.00;99807.31;5059960;28;20319;-48
2022/04/27 08:12:02;;;;;;;;;;;;;;;16.53;100.00;99818.47;5064704;28;19970;-51
2022/04/27 08:14:27;;;;;;;;;;;;;;;17.00;100.00;99809.50;5060124;28;19963;-49
2022/04/27 08:16:53;;;;;;;;;;;;;;;17.28;100.00;99807.31;5061635;28;20750;-51
2022/04/27 08:19:20;;;;;;;;;;;;;;;18.59;97.44;99806.13;5061951;28;20568;-51
2022/04/27 08:21:45;;;;;;;;;;;;;;;17.24;97.78;99816.19;5060870;28;19916;-48
2022/04/27 08:24:11;;;;;;;;;;;;;;;17.35;99.87;99813.06;5062880;28;19986;-51
2022/04/27 08:26:36;;;;;;;;;;;;;;;17.88;99.25;99812.31;5061134;28;19920;-49
2022/04/27 08:29:02;;;;;;;;;;;;;;;16.67;100.00;99823.94;5061578;28;20070;-49
2022/04/27 08:31:27;;;;;;;;;;;;;;;18.01;100.00;99806.47;5060048;28;20005;-50
2022/04/27 08:33:52;;;;;;;;;;;;;;;17.43;98.14;99815.34;5063890;28;20073;-48
2022/04/27 08:36:17;;;;;;;;;;;;;;;17.97;99.83;99819.66;5064702;28;19951;-47
2022/04/27 08:38:43;;;;;;;;;;;;;;;17.66;99.07;99819.44;5062587;28;20347;-48
2022/04/27 08:41:08;;;;;;;;;;;;;;;17.11;96.71;99825.47;5061865;28;19920;-50
2022/04/27 08:43:33;;;;;;;;;;;;;;;16.95;100.00;99827.09;5061168;28;19955;-50
2022/04/27 08:46:01;;;;;;;;;;;;;;;18.57;93.54;99821.00;5060913;28;20007;-51
2022/04/27 08:48:26;;;;;;;;;;;;;;;18.25;98.48;99827.88;5059481;28;20039;-50
2022/04/27 08:50:51;;;;;;;;;;;;;;;18.52;97.17;99823.84;5058021;28;19926;-52
2022/04/27 08:53:16;;;;;;;;;;;;;;;17.91;97.54;99827.78;5059918;28;19992;-51
2022/04/27 08:55:42;;;;;;;;;;;;;;;17.62;91.89;99823.09;5063461;28;19977;-52
2022/04/27 08:58:12;;;;;;;;;;;;;;;18.04;92.12;99832.38;5065578;28;20426;-52
2022/04/27 09:00:37;;;;;;;;;;;;;;;18.21;90.48;99829.78;5069453;28;20282;-47
2022/04/27 09:03:22;;;;;;;;;;;;;;;18.10;88.42;99826.88;5044297;28;19927;-48
2022/04/27 09:05:51;;;;;;;;;;;;;;;18.38;82.77;99824.56;5067178;28;20411;-48
2022/04/27 09:08:17;;;;;;;;;;;;;;;18.86;85.53;99832.56;5066133;28;19965;-49
2022/04/27 09:10:42;;;;;;;;;;;;;;;18.43;84.56;99828.69;5064626;28;19919;-52
2022/04/27 09:13:08;;;;;;;;;;;;;;;15.97;100.00;99845.09;5060067;28;20530;-51
2022/04/27 09:15:33;;;;;;;;;;;;;;;17.40;100.00;99842.34;5064339;28;20500;-48
2022/04/27 09:20:50;;;;;;;;;;;;;;;17.88;93.46;99830.56;5066461;28;19926;-49
2022/04/27 09:23:22;;;;;;;;;;;;;;;16.80;100.00;99832.06;5065057;28;19920;-50
2022/04/27 09:25:47;;;;;;;;;;;;;;;16.70;100.00;99836.78;5059663;28;19927;-49
2022/04/27 09:28:13;;;;;;;;;;;;;;;15.84;100.00;99829.16;5062982;28;19952;-49
2022/04/27 09:30:38;;;;;;;;;;;;;;;15.92;100.00;99842.69;5063998;28;19917;-49
2022/04/27 09:33:03;;;;;;;;;;;;;;;16.82;100.00;99840.63;5064557;28;20770;-50
2022/04/27 09:35:29;;;;;;;;;;;;;;;17.49;100.00;99836.72;5065974;28;19916;-49
2022/04/27 09:37:55;;;;;;;;;;;;;;;20.07;93.09;99827.66;5065174;28;19921;-49
2022/04/27 09:40:20;;;;;;;;;;;;;;;18.81;93.73;99832.78;5066005;28;19927;-49
2022/04/27 09:42:46;;;;;;;;;;;;;;;16.63;100.00;99850.13;5064259;28;19931;-51
2022/04/27 09:45:14;;;;;;;;;;;;;;;18.01;100.00;99832.53;5067008;28;19923;-50
2022/04/27 09:47:46;;;;;;;;;;;;;;;19.40;88.98;99827.03;5070353;28;19946;-50
2022/04/27 09:50:11;;;;;;;;;;;;;;;17.96;95.76;99832.78;5065702;28;19924;-49
2022/04/27 09:52:37;;;;;;;;;;;;;;;17.93;99.68;99833.75;5065316;28;20381;-49
2022/04/27 09:55:02;;;;;;;;;;;;;;;18.72;86.50;99825.41;5066438;28;20437;-47
2022/04/27 09:57:27;;;;;;;;;;;;;;;19.09;89.16;99833.94;5064494;28;19927;-50
2022/04/27 09:59:53;;;;;;;;;;;;;;;18.89;92.77;99842.00;5065139;28;19973;-50
2022/04/27 10:02:25;;;;;;;;;;;;;;;19.62;85.03;99824.91;5064464;28;19974;-51
2022/04/27 10:04:51;;;;;;;;;;;;;;;19.58;90.85;99836.47;5061385;28;19928;-49
2022/04/27 10:07:16;;;;;;;;;;;;;;;18.41;94.18;99836.59;5063531;28;20399;-49
2022/04/27 10:09:41;;;;;;;;;;;;;;;16.87;100.00;99849.06;5060475;28;19920;-48
2022/04/27 10:12:11;;;;;;;;;;;;;;;17.29;100.00;99842.84;5059579;28;20007;-49
2022/04/27 10:14:36;;;;;;;;;;;;;;;17.39;100.00;99835.44;5061020;28;19921;-51
2022/04/27 10:17:01;;;;;;;;;;;;;;;17.57;100.00;99849.38;5059356;28;20900;-51
2022/04/27 10:19:27;;;;;;;;;;;;;;;17.68;100.00;99843.66;5063083;28;19923;-48
2022/04/27 10:21:59;;;;;;;;;;;;;;;18.11;100.00;99845.06;5062169;28;19923;-48
2022/04/27 10:24:34;;;;;;;;;;;;;;;17.99;100.00;99840.44;5067623;28;20280;-48
2022/04/27 10:27:14;;;;;;;;;;;;;;;19.63;86.95;99837.03;5047933;28;19965;-48
2022/04/27 10:29:39;;;;;;;;;;;;;;;19.76;91.32;99836.41;5066719;28;19916;-51
2022/04/27 10:32:05;;;;;;;;;;;;;;;18.05;96.45;99834.91;5063219;28;20313;-49
2022/04/27 10:34:31;;;;;;;;;;;;;;;18.97;100.00;99840.66;5062045;28;20029;-47
2022/04/27 10:36:57;;;;;;;;;;;;;;;17.97;92.53;99830.09;5065554;28;20007;-49
2022/04/27 10:39:22;;;;;;;;;;;;;;;18.17;95.94;99828.25;5065251;28;20437;-48
2022/04/27 10:42:03;;;;;;;;;;;;;;;18.91;98.58;99830.56;5054838;28;20014;-50
2022/04/27 10:44:47;;;;;;;;;;;;;;;17.79;100.00;99844.00;5048558;28;19924;-46
2022/04/27 10:47:15;;;;;;;;;;;;;;;17.45;100.00;99845.59;5054052;28;19947;-49
2022/04/27 10:49:40;;;;;;;;;;;;;;;17.72;100.00;99850.38;5061421;28;19927;-49
2022/04/27 10:52:06;;;;;;;;;;;;;;;17.96;100.00;99840.59;5059887;28;19920;-47
2022/04/27 10:54:32;;;;;;;;;;;;;;;18.34;99.48;99838.69;5064053;28;20354;-49
2022/04/27 10:57:16;;;;;;;;;;;;;;;16.77;100.00;99852.13;5065320;28;20007;-50
2022/04/27 10:59:48;;;;;;;;;;;;;;;19.60;95.06;99834.63;5060942;28;19921;-50
2022/04/27 11:02:35;;;;;;;;;;;;;;;17.92;98.00;99842.50;5057637;28;19931;-49
2022/04/27 11:05:09;;;;;;;;;;;;;;;17.95;94.36;99839.75;5062105;28;19928;-50
2022/04/27 11:07:53;;;;;;;;;;;;;;;19.92;90.90;99828.53;5061992;28;19924;-50
2022/04/27 11:10:20;;;;;;;;;;;;;;;18.33;99.35;99843.97;5062800;28;19959;-50
2022/04/27 11:12:48;;;;;;;;;;;;;;;17.93;92.03;99836.38;5062845;28;19928;-48
2022/04/27 11:15:15;;;;;;;;;;;;;;;19.41;91.39;99828.75;5063954;28;20015;-48
2022/04/27 11:17:40;;;;;;;;;;;;;;;19.02;100.00;99850.84;5061932;28;19924;-51
2022/04/27 11:20:06;;;;;;;;;;;;;;;18.55;99.56;99843.72;5064290;28;19951;-48
2022/04/27 11:22:38;;;;;;;;;;;;;;;18.86;100.00;99852.59;5064228;28;19916;-47
2022/04/27 11:25:08;;;;;;;;;;;;;;;19.39;96.79;99841.03;5061720;28;20056;-48
2022/04/27 11:27:34;;;;;;;;;;;;;;;20.12;87.63;99835.22;5062946;28;19927;-49
2022/04/27 11:29:59;;;;;;;;;;;;;;;21.12;84.03;99831.84;5065780;28;19916;-52
2022/04/27 11:32:25;;;;;;;;;;;;;;;19.48;81.58;99837.06;5061926;28;19939;-50
2022/04/27 11:34:50;;;;;;;;;;;;;;;21.12;80.78;99830.09;5061681;28;20015;-48
2022/04/27 11:37:15;;;;;;;;;;;;;;;21.29;76.88;99822.00;5064516;28;19920;-45
2022/04/27 11:39:41;;;;;;;;;;;;;;;21.95;76.87;99826.59;5061941;28;20033;-46
2022/04/27 11:42:06;;;;;;;;;;;;;;;21.45;79.25;99821.06;5063202;28;19919;-47
2022/04/27 11:44:32;;;;;;;;;;;;;;;18.30;95.71;99847.56;5062364;28;19920;-49
2022/04/27 11:46:58;;;;;;;;;;;;;;;20.06;92.19;99836.41;5061603;28;19960;-48
2022/04/27 11:49:23;;;;;;;;;;;;;;;20.93;85.92;99830.38;5063760;28;20007;-48
2022/04/27 11:51:49;;;;;;;;;;;;;;;20.64;90.26;99834.75;5057947;28;19917;-49
2022/04/27 11:54:25;;;;;;;;;;;;;;;20.66;84.32;99840.75;5059464;28;19979;-50
2022/04/27 11:56:54;;;;;;;;;;;;;;;21.04;78.51;99824.47;5059681;28;19966;-50
2022/04/27 11:59:19;;;;;;;;;;;;;;;19.73;83.98;99839.16;5061984;28;19997;-49
2022/04/27 12:01:50;;;;;;;;;;;;;;;18.41;93.46;99841.00;5062467;28;20319;-49
2022/04/27 12:04:16;;;;;;;;;;;;;;;20.21;90.55;99838.16;5053340;28;19978;-48
2022/04/27 12:06:41;;;;;;;;;;;;;;;20.28;90.76;99830.78;5064492;28;20503;-52
2022/04/27 12:09:06;;;;;;;;;;;;;;;21.37;86.86;99825.91;5059708;28;20023;-49
2022/04/27 12:11:31;;;;;;;;;;;;;;;21.91;77.82;99821.53;5062029;28;19920;-50
2022/04/27 12:13:57;;;;;;;;;;;;;;;20.50;94.53;99830.31;5063198;28;19927;-50
2022/04/27 12:16:28;;;;;;;;;;;;;;;19.96;89.72;99830.03;5065564;28;19921;-52
2022/04/27 12:18:58;;;;;;;;;;;;;;;21.12;90.66;99822.22;5059020;28;19959;-49
2022/04/27 12:21:29;;;;;;;;;;;;;;;22.51;84.88;99814.94;5060310;28;19921;-48
2022/04/27 12:23:57;;;;;;;;;;;;;;;22.22;84.79;99818.69;5057979;28;20015;-50
2022/04/27 12:26:23;;;;;;;;;;;;;;;20.40;87.70;99827.44;5059980;28;19923;-48
2022/04/27 12:28:49;;;;;;;;;;;;;;;19.43;97.38;99832.94;5059597;28;20316;-48
2022/04/27 12:31:16;;;;;;;;;;;;;;;20.35;87.91;99816.41;5060168;28;20028;-50
2022/04/27 12:33:44;;;;;;;;;;;;;;;20.23;84.22;99817.09;5060206;28;19920;-47
2022/04/27 12:38:55;;;;;;;;;;;;;;;20.54;86.00;99815.28;5062527;28;20011;-49
2022/04/27 12:41:43;;;;;;;;;;;;;;;20.67;88.42;99814.50;5060890;28;20385;-46
2022/04/27 12:44:12;;;;;;;;;;;;;;;19.36;91.11;99820.28;5063905;28;19958;-46
2022/04/27 12:46:53;;;;;;;;;;;;;;;18.99;93.77;99830.97;5064140;28;20383;-50
2022/04/27 12:49:23;;;;;;;;;;;;;;;21.55;84.81;99808.19;5064034;28;19951;-49
2022/04/27 12:51:48;;;;;;;;;;;;;;;21.57;76.67;99809.78;5061903;28;20031;-47
2022/04/27 12:54:13;;;;;;;;;;;;;;;21.20;79.48;99809.47;5061553;28;19920;-46
2022/04/27 12:56:39;;;;;;;;;;;;;;;20.44;78.29;99818.47;5059095;28;20035;-49
2022/04/27 12:59:07;;;;;;;;;;;;;;;20.86;91.21;99822.06;5063803;28;20007;-47